Time;durP1;ratioP1;P1;durP2;ratioP2;P2;SDS_P1;SDS_P2;PMS_P1;PMS_P2;Temp;Humidity;BMP_temperature;BMP_pressure;BME280_temperature;BME280_humidity;BME280_pressure;Samples;Min_cycle;Max_cycle;Signal;HPM_P1;HPM_P2
2024/01/13 00:01:00;;;;;;;7.50;1.73;;;;;;;3.02;100.00;102775.41;7395596;19;19919;-76
2024/01/13 00:03:29;;;;;;;5.65;1.30;;;;;;;3.00;100.00;102776.44;7395920;19;19927;-76
2024/01/13 00:06:01;;;;;;;4.70;1.00;;;;;;;2.97;100.00;102771.28;7394846;19;19922;-77
2024/01/13 00:08:50;;;;;;;9.85;1.67;;;;;;;2.96;100.00;102769.56;7398943;19;20347;-76
2024/01/13 00:11:19;;;;;;;6.18;1.40;;;;;;;2.94;100.00;102760.78;7401221;19;19926;-76
2024/01/13 00:13:48;;;;;;;4.97;1.60;;;;;;;2.91;100.00;102759.16;7399849;19;20384;-76
2024/01/13 00:16:17;;;;;;;2.78;1.30;;;;;;;2.91;100.00;102755.63;7401499;19;19934;-76
2024/01/13 00:18:45;;;;;;;5.68;1.20;;;;;;;2.87;100.00;102756.72;7402112;19;19919;-77
2024/01/13 00:21:16;;;;;;;3.22;1.13;;;;;;;2.85;100.00;102759.47;7403133;19;20407;-76
2024/01/13 00:23:45;;;;;;;7.60;1.65;;;;;;;2.85;100.00;102756.78;7403385;19;19931;-76
2024/01/13 00:26:14;;;;;;;3.20;1.70;;;;;;;2.83;100.00;102749.84;7405526;19;19929;-77
2024/01/13 00:28:42;;;;;;;6.00;1.85;;;;;;;2.82;100.00;102742.81;7403061;19;19929;-78
2024/01/13 00:31:11;;;;;;;3.20;1.23;;;;;;;2.82;100.00;102742.81;7402728;19;19953;-78
2024/01/13 00:33:43;;;;;;;4.93;1.85;;;;;;;2.82;100.00;102742.81;7401737;19;19970;-78
2024/01/13 00:36:12;;;;;;;2.90;1.35;;;;;;;2.81;100.00;102746.41;7402060;19;19914;-77
2024/01/13 00:38:43;;;;;;;6.32;2.38;;;;;;;2.79;100.00;102737.66;7401805;19;20613;-77
2024/01/13 00:41:11;;;;;;;4.07;1.30;;;;;;;2.77;100.00;102739.50;7400867;19;20533;-78
2024/01/13 00:43:40;;;;;;;3.40;2.03;;;;;;;2.76;100.00;102733.38;7401324;19;19919;-78
2024/01/13 00:46:09;;;;;;;4.63;1.70;;;;;;;2.73;100.00;102723.72;7401035;19;19922;-78
2024/01/13 00:48:37;;;;;;;5.80;1.63;;;;;;;2.76;100.00;102716.53;7401421;19;20007;-78
2024/01/13 00:51:07;;;;;;;6.70;2.10;;;;;;;2.78;100.00;102710.19;7400365;19;19933;-78
2024/01/13 00:53:35;;;;;;;4.63;1.40;;;;;;;2.80;100.00;102710.09;7401232;19;19930;-78
2024/01/13 00:56:07;;;;;;;6.85;2.33;;;;;;;2.80;100.00;102708.31;7399998;19;20562;-77
2024/01/13 00:58:36;;;;;;;2.65;1.55;;;;;;;2.81;100.00;102711.78;7400907;19;19923;-78
2024/01/13 01:01:04;;;;;;;6.63;2.65;;;;;;;2.80;100.00;102708.31;7400479;19;19933;-78
2024/01/13 01:03:33;;;;;;;5.72;1.95;;;;;;;2.81;100.00;102709.13;7401460;19;19929;-78
2024/01/13 01:06:02;;;;;;;2.90;1.63;;;;;;;2.80;100.00;102710.09;7399355;19;19930;-78
2024/01/13 01:08:31;;;;;;;3.08;1.30;;;;;;;2.79;100.00;102695.06;7399793;19;19922;-78
2024/01/13 01:11:00;;;;;;;4.38;1.42;;;;;;;2.78;100.00;102701.31;7399298;19;20002;-78
2024/01/13 01:13:32;;;;;;;5.55;1.60;;;;;;;2.78;100.00;102694.22;7399183;19;20281;-78
2024/01/13 01:16:00;;;;;;;1.92;1.50;;;;;;;2.76;100.00;102695.25;7400305;19;19919;-77
2024/01/13 01:18:29;;;;;;;2.40;1.27;;;;;;;2.74;100.00;102690.84;7398001;19;20634;-78
2024/01/13 01:20:58;;;;;;;3.22;1.27;;;;;;;2.75;100.00;102689.06;7399146;19;19918;-78
2024/01/13 01:23:27;;;;;;;1.83;1.13;;;;;;;2.73;100.00;102681.16;7398384;19;19931;-78
2024/01/13 01:25:55;;;;;;;2.88;1.20;;;;;;;2.75;100.00;102678.41;7400050;19;19915;-78
2024/01/13 01:28:24;;;;;;;3.95;1.13;;;;;;;2.76;100.00;102689.91;7399597;19;19915;-78
2024/01/13 01:30:55;;;;;;;2.58;1.50;;;;;;;2.78;100.00;102677.38;7400353;19;20287;-77
2024/01/13 01:33:43;;;;;;;6.43;1.67;;;;;;;2.78;100.00;102677.38;7398687;19;20320;-78
2024/01/13 01:36:12;;;;;;;2.83;1.20;;;;;;;2.78;100.00;102669.38;7400052;19;19915;-78
2024/01/13 01:38:41;;;;;;;6.55;1.70;;;;;;;2.78;100.00;102672.91;7399731;19;19914;-78
2024/01/13 01:41:10;;;;;;;6.00;1.83;;;;;;;2.77;100.00;102662.34;7398034;19;19926;-77
2024/01/13 01:43:39;;;;;;;3.75;1.63;;;;;;;2.76;100.00;102663.31;7399604;19;19930;-78
2024/01/13 01:46:14;;;;;;;2.50;1.27;;;;;;;2.76;100.00;102650.88;7398835;19;19931;-78
2024/01/13 01:48:44;;;;;;;3.92;2.15;;;;;;;2.75;100.00;102643.81;7400692;19;20018;-78
2024/01/13 01:51:14;;;;;;;3.58;1.70;;;;;;;2.73;100.00;102637.69;7399403;19;19922;-78
2024/01/13 01:53:44;;;;;;;3.80;1.40;;;;;;;2.72;100.00;102639.50;7400521;19;19919;-78
2024/01/13 01:56:16;;;;;;;2.10;1.15;;;;;;;2.73;100.00;102643.88;7400108;19;19931;-78
2024/01/13 01:58:45;;;;;;;6.43;1.60;;;;;;;2.72;100.00;102636.84;7403338;19;19915;-78
2024/01/13 02:01:17;;;;;;;5.18;1.67;;;;;;;2.74;100.00;102626.13;7407907;19;20312;-78
2024/01/13 02:04:06;;;;;;;3.05;1.50;;;;;;;2.73;100.00;102627.94;7400365;19;19922;-77
2024/01/13 02:06:35;;;;;;;5.07;1.45;;;;;;;2.74;100.00;102629.66;7399324;19;19923;-78
2024/01/13 02:09:04;;;;;;;4.20;1.27;;;;;;;2.75;100.00;102619.88;7398718;19;19922;-78
2024/01/13 02:11:33;;;;;;;2.80;0.93;;;;;;;2.77;100.00;102617.09;7398139;19;19933;-78
2024/01/13 02:14:03;;;;;;;2.50;1.15;;;;;;;2.79;100.00;102617.91;7398613;19;19938;-78
2024/01/13 02:16:34;;;;;;;2.35;1.33;;;;;;;2.79;100.00;102612.56;7400067;19;19946;-78
2024/01/13 02:19:03;;;;;;;1.48;1.10;;;;;;;2.78;100.00;102608.19;7399123;19;20482;-78
2024/01/13 02:21:32;;;;;;;1.98;0.93;;;;;;;2.77;100.00;102596.69;7399207;19;19922;-77
2024/01/13 02:24:03;;;;;;;2.67;1.25;;;;;;;2.77;100.00;102602.00;7399374;19;19922;-78
2024/01/13 02:26:36;;;;;;;2.60;0.85;;;;;;;2.75;100.00;102587.94;7398860;19;19957;-78
2024/01/13 02:29:05;;;;;;;2.45;0.80;;;;;;;2.74;100.00;102592.41;7398951;19;19942;-78
2024/01/13 02:31:33;;;;;;;2.08;0.82;;;;;;;2.73;100.00;102592.47;7395560;19;19926;-78
2024/01/13 02:34:02;;;;;;;2.80;1.00;;;;;;;2.71;100.00;102586.38;7399110;19;19946;-78
2024/01/13 02:36:30;;;;;;;3.25;0.90;;;;;;;2.69;100.00;102581.13;7397690;19;19922;-78
2024/01/13 02:38:59;;;;;;;3.90;0.98;;;;;;;2.66;100.00;102572.47;7399375;19;19946;-78
2024/01/13 02:41:30;;;;;;;2.42;1.10;;;;;;;2.65;100.00;102570.75;7397840;19;19918;-78
2024/01/13 02:43:59;;;;;;;4.60;0.93;;;;;;;2.62;100.00;102568.25;7398475;19;19922;-78
2024/01/13 02:46:27;;;;;;;1.77;0.77;;;;;;;2.59;100.00;102555.97;7398623;19;20388;-78
2024/01/13 02:48:59;;;;;;;4.72;1.23;;;;;;;2.56;100.00;102558.81;7398109;19;19942;-77
2024/01/13 02:51:29;;;;;;;2.03;1.00;;;;;;;2.56;100.00;102553.50;7396667;19;19915;-78
2024/01/13 02:53:58;;;;;;;2.22;1.00;;;;;;;2.55;100.00;102551.75;7398336;19;19931;-78
2024/01/13 02:56:26;;;;;;;2.90;1.05;;;;;;;2.56;100.00;102542.00;7395799;19;19954;-78
2024/01/13 02:58:57;;;;;;;2.45;0.80;;;;;;;2.55;100.00;102543.78;7397820;19;20355;-78
2024/01/13 03:01:26;;;;;;;4.18;1.30;;;;;;;2.57;100.00;102547.22;7397885;19;19919;-78
2024/01/13 03:03:54;;;;;;;3.35;1.08;;;;;;;2.59;100.00;102536.53;7398683;19;20490;-77
2024/01/13 03:06:24;;;;;;;1.15;0.85;;;;;;;2.60;100.00;102535.56;7397240;19;20304;-78
2024/01/13 03:08:53;;;;;;;3.85;1.00;;;;;;;2.60;100.00;102535.56;7396660;19;20014;-78
2024/01/13 03:11:22;;;;;;;1.70;0.80;;;;;;;2.60;100.00;102547.06;7397659;19;19918;-78
2024/01/13 03:13:50;;;;;;;4.47;1.70;;;;;;;2.62;100.00;102539.00;7398161;19;19926;-78
2024/01/13 03:16:22;;;;;;;2.95;0.82;;;;;;;2.62;100.00;102523.03;7398103;19;19922;-78
2024/01/13 03:18:51;;;;;;;1.83;0.93;;;;;;;2.60;100.00;102517.78;7396439;19;19946;-76
2024/01/13 03:21:19;;;;;;;1.70;0.90;;;;;;;2.60;100.00;102525.78;7397079;19;20353;-76
2024/01/13 03:23:48;;;;;;;1.55;0.80;;;;;;;2.60;100.00;102522.25;7395958;19;19946;-75
2024/01/13 03:26:16;;;;;;;3.30;1.08;;;;;;;2.60;100.00;102520.44;7398373;19;19946;-76
2024/01/13 03:28:45;;;;;;;2.50;1.02;;;;;;;2.63;100.00;102522.94;7397293;19;19942;-75
2024/01/13 03:31:15;;;;;;;5.57;1.02;;;;;;;2.61;100.00;102514.19;7397563;19;20348;-76
2024/01/13 03:33:46;;;;;;;2.50;0.90;;;;;;;2.64;100.00;102515.81;7397678;19;19915;-76
2024/01/13 03:36:15;;;;;;;1.25;0.57;;;;;;;2.67;100.00;102513.00;7396878;19;19922;-76
2024/01/13 03:38:44;;;;;;;2.30;0.77;;;;;;;2.69;100.00;102516.41;7397925;19;19918;-78
2024/01/13 03:41:34;;;;;;;1.20;0.70;;;;;;;2.72;100.00;102516.22;7392923;19;19910;-78
2024/01/13 03:44:03;;;;;;;1.27;0.80;;;;;;;2.74;100.00;102507.25;7396675;19;19918;-78
2024/01/13 03:46:52;;;;;;;3.63;0.70;;;;;;;2.75;100.00;102505.44;7395049;19;19918;-78
2024/01/13 03:49:23;;;;;;;1.27;0.82;;;;;;;2.78;100.00;102497.28;7396599;19;19926;-78
2024/01/13 03:51:52;;;;;;;1.52;0.95;;;;;;;2.78;100.00;102501.75;7396599;19;19950;-77
2024/01/13 03:54:40;;;;;;;1.90;1.15;;;;;;;2.78;100.00;102501.75;7394212;19;19953;-78
2024/01/13 03:57:09;;;;;;;1.67;1.00;;;;;;;2.80;100.00;102510.50;7395520;19;19922;-78
2024/01/13 03:59:37;;;;;;;3.38;0.90;;;;;;;2.80;100.00;102502.53;7394001;19;20268;-78
2024/01/13 04:02:06;;;;;;;1.98;0.85;;;;;;;2.79;100.00;102516.78;7396104;19;19914;-78
2024/01/13 04:04:37;;;;;;;1.38;0.70;;;;;;;2.76;100.00;102511.63;7397230;19;19954;-78
2024/01/13 04:07:07;;;;;;;1.42;0.90;;;;;;;2.73;100.00;102505.53;7396507;19;19950;-78
2024/01/13 04:09:37;;;;;;;2.33;0.70;;;;;;;2.69;100.00;102501.31;7396901;19;19914;-78
2024/01/13 04:12:07;;;;;;;2.03;0.90;;;;;;;2.71;100.00;102493.25;7397020;19;19974;-78
2024/01/13 04:14:35;;;;;;;2.10;1.00;;;;;;;2.71;100.00;102496.78;7395683;19;19919;-78
2024/01/13 04:17:05;;;;;;;1.65;0.82;;;;;;;2.73;100.00;102486.03;7396962;19;19930;-78
2024/01/13 04:19:36;;;;;;;0.90;0.70;;;;;;;2.73;100.00;102478.03;7400591;19;19919;-78
2024/01/13 04:22:05;;;;;;;1.30;0.60;;;;;;;2.73;100.00;102462.09;7403791;19;19923;-78
2024/01/13 04:24:33;;;;;;;2.75;0.60;;;;;;;2.72;100.00;102460.34;7401650;19;19922;-78
2024/01/13 04:27:02;;;;;;;2.40;0.77;;;;;;;2.71;100.00;102454.22;7395068;19;19923;-78
2024/01/13 04:29:30;;;;;;;2.35;0.93;;;;;;;2.68;100.00;102446.38;7395948;19;19939;-78
2024/01/13 04:31:59;;;;;;;4.05;0.80;;;;;;;2.66;100.00;102442.97;7394293;19;19915;-78
2024/01/13 04:34:28;;;;;;;2.08;0.60;;;;;;;2.67;100.00;102451.81;7394903;19;19986;-78
2024/01/13 04:37:00;;;;;;;5.85;1.02;;;;;;;2.67;100.00;102451.81;7394321;19;20177;-78
2024/01/13 04:39:29;;;;;;;2.60;0.90;;;;;;;2.69;100.00;102444.59;7395791;19;20630;-78
2024/01/13 04:41:58;;;;;;;1.60;0.68;;;;;;;2.70;100.00;102444.50;7392233;19;19923;-78
2024/01/13 04:44:26;;;;;;;3.60;1.00;;;;;;;2.71;100.00;102443.56;7393962;19;19930;-77
2024/01/13 04:46:55;;;;;;;2.83;0.95;;;;;;;2.71;100.00;102446.22;7392790;19;21199;-78
2024/01/13 04:49:23;;;;;;;1.35;0.88;;;;;;;2.70;100.00;102439.19;7394775;19;19945;-78
2024/01/13 04:51:52;;;;;;;1.60;0.90;;;;;;;2.71;100.00;102432.91;7392690;19;19948;-78
2024/01/13 04:54:23;;;;;;;2.50;0.70;;;;;;;2.71;100.00;102440.03;7398893;19;19922;-78
2024/01/13 04:56:52;;;;;;;2.47;0.75;;;;;;;2.71;100.00;102448.88;7401206;19;19927;-78
2024/01/13 04:59:20;;;;;;;3.67;1.00;;;;;;;2.68;100.00;102449.03;7401476;19;19922;-78
2024/01/13 05:01:49;;;;;;;2.35;0.70;;;;;;;2.68;100.00;102450.84;7399703;19;19919;-78
2024/01/13 05:04:17;;;;;;;2.00;0.75;;;;;;;2.65;100.00;102459.88;7400123;19;20619;-78
2024/01/13 05:07:07;;;;;;;1.75;0.80;;;;;;;2.66;100.00;102471.38;7398159;19;19926;-78
2024/01/13 05:09:39;;;;;;;1.77;0.77;;;;;;;2.66;100.00;102453.59;7399677;19;19930;-77
2024/01/13 05:12:09;;;;;;;7.50;1.10;;;;;;;2.67;100.00;102449.16;7400912;19;19931;-78
2024/01/13 05:14:37;;;;;;;1.23;0.70;;;;;;;2.66;100.00;102429.66;7400200;19;19923;-78
2024/01/13 05:17:07;;;;;;;2.70;1.30;;;;;;;2.69;100.00;102428.63;7401304;19;19925;-78
2024/01/13 05:19:35;;;;;;;1.88;0.73;;;;;;;2.69;100.00;102412.66;7400634;19;19922;-78
2024/01/13 05:22:04;;;;;;;2.15;0.93;;;;;;;2.70;100.00;102398.41;7399485;19;19915;-78
2024/01/13 05:24:33;;;;;;;3.42;0.93;;;;;;;2.69;100.00;102396.69;7398772;19;19915;-78
2024/01/13 05:27:04;;;;;;;1.30;0.90;;;;;;;2.69;100.00;102386.91;7400332;19;19955;-79
2024/01/13 05:29:33;;;;;;;3.33;0.90;;;;;;;2.69;100.00;102380.72;7400763;19;19927;-78
2024/01/13 05:32:01;;;;;;;1.73;1.00;;;;;;;2.70;100.00;102372.66;7397572;19;19946;-78
2024/01/13 05:34:30;;;;;;;2.90;1.30;;;;;;;2.75;100.00;102369.72;7400421;19;19953;-78
2024/01/13 05:36:58;;;;;;;1.98;0.95;;;;;;;2.76;100.00;102363.47;7399581;19;19919;-78
2024/01/13 05:39:27;;;;;;;4.15;1.50;;;;;;;2.76;100.00;102363.47;7399485;19;20272;-78
2024/01/13 05:41:55;;;;;;;4.18;1.40;;;;;;;2.78;100.00;102344.72;7399411;19;19922;-78
2024/01/13 05:44:28;;;;;;;2.45;1.08;;;;;;;2.78;100.00;102342.94;7400139;19;20344;-78
2024/01/13 05:46:57;;;;;;;1.73;1.00;;;;;;;2.78;100.00;102342.94;7398811;19;19918;-78
2024/01/13 05:49:26;;;;;;;1.42;0.90;;;;;;;2.78;100.00;102342.06;7400926;19;20374;-78
2024/01/13 05:51:54;;;;;;;1.85;0.90;;;;;;;2.79;100.00;102333.16;7398652;19;19931;-78
2024/01/13 05:54:24;;;;;;;4.30;1.17;;;;;;;2.80;100.00;102310.91;7400295;19;19918;-78
2024/01/13 05:56:53;;;;;;;2.22;1.00;;;;;;;2.81;100.00;102307.28;7397973;19;19929;-78
2024/01/13 05:59:22;;;;;;;2.28;1.00;;;;;;;2.81;100.00;102316.13;7399831;19;20285;-78
2024/01/13 06:01:53;;;;;;;2.67;1.20;;;;;;;2.82;100.00;102323.16;7398572;19;19914;-79
2024/01/13 06:04:21;;;;;;;1.75;1.00;;;;;;;2.83;100.00;102345.31;7398414;19;19938;-78
2024/01/13 06:06:50;;;;;;;1.90;0.98;;;;;;;2.83;100.00;102340.88;7398033;19;19918;-78
2024/01/13 06:09:18;;;;;;;2.13;0.90;;;;;;;2.82;100.00;102331.16;7400188;19;19918;-77
2024/01/13 06:11:47;;;;;;;1.33;0.68;;;;;;;2.81;100.00;102310.81;7398573;19;20375;-78
2024/01/13 06:14:16;;;;;;;1.58;0.75;;;;;;;2.80;100.00;102313.59;7399080;19;19914;-78
2024/01/13 06:16:44;;;;;;;3.38;0.80;;;;;;;2.81;100.00;102296.63;7400211;19;19915;-78
2024/01/13 06:19:16;;;;;;;2.17;0.90;;;;;;;2.81;100.00;102305.50;7398844;19;20351;-78
2024/01/13 06:21:45;;;;;;;1.33;1.00;;;;;;;2.82;100.00;102293.91;7400106;19;19922;-78
2024/01/13 06:24:14;;;;;;;2.15;0.90;;;;;;;2.82;100.00;102296.56;7399804;19;19938;-78
2024/01/13 06:26:43;;;;;;;2.08;0.70;;;;;;;2.82;100.00;102301.03;7401222;19;20457;-78
2024/01/13 06:29:12;;;;;;;1.17;0.77;;;;;;;2.80;100.00;102285.16;7400671;19;20408;-79
2024/01/13 06:31:40;;;;;;;1.67;0.70;;;;;;;2.81;100.00;102296.63;7401497;19;19939;-79
2024/01/13 06:34:09;;;;;;;2.20;0.90;;;;;;;2.81;100.00;102299.31;7401381;19;19933;-79
2024/01/13 06:36:40;;;;;;;2.22;0.90;;;;;;;2.78;100.00;102295.03;7402430;19;20379;-78
2024/01/13 06:39:09;;;;;;;1.58;0.88;;;;;;;2.78;100.00;102278.22;7401098;19;19966;-78
2024/01/13 06:41:37;;;;;;;2.58;0.80;;;;;;;2.76;100.00;102275.66;7398418;19;19946;-77
2024/01/13 06:44:06;;;;;;;3.17;0.82;;;;;;;2.73;100.00;102282.00;7399830;19;19946;-78
2024/01/13 06:46:35;;;;;;;2.45;0.80;;;;;;;2.72;100.00;102274.97;7399616;19;20336;-78
2024/01/13 06:49:03;;;;;;;1.42;0.73;;;;;;;2.74;100.00;102277.53;7399556;19;19930;-78
2024/01/13 06:51:32;;;;;;;1.00;0.70;;;;;;;2.73;100.00;102268.69;7399230;19;19922;-78
2024/01/13 06:54:03;;;;;;;3.85;1.10;;;;;;;2.73;100.00;102226.13;7398505;19;19918;-77
2024/01/13 06:56:32;;;;;;;1.27;0.70;;;;;;;2.74;100.00;102206.56;7397521;19;19922;-78
2024/01/13 06:59:00;;;;;;;1.40;0.70;;;;;;;2.75;100.00;102242.00;7398787;19;19919;-78
2024/01/13 07:01:29;;;;;;;1.38;0.80;;;;;;;2.73;100.00;102227.94;7397374;19;19942;-78
2024/01/13 07:03:58;;;;;;;1.90;0.85;;;;;;;2.71;100.00;102224.53;7397344;19;19922;-78
2024/01/13 07:06:26;;;;;;;2.50;0.85;;;;;;;2.70;100.00;102225.47;7396214;19;19923;-78
2024/01/13 07:08:55;;;;;;;1.42;0.85;;;;;;;2.71;100.00;102228.03;7397344;19;19954;-78
2024/01/13 07:11:27;;;;;;;0.90;0.50;;;;;;;2.71;100.00;102222.72;7396341;19;19926;-78
2024/01/13 07:13:55;;;;;;;2.45;0.98;;;;;;;2.70;100.00;102236.97;7398215;19;19932;-78
2024/01/13 07:16:24;;;;;;;1.90;0.60;;;;;;;2.71;100.00;102229.84;7396311;19;19948;-78
2024/01/13 07:18:52;;;;;;;0.98;0.40;;;;;;;2.70;100.00;102234.31;7394500;19;19923;-78
2024/01/13 07:21:22;;;;;;;2.28;0.70;;;;;;;2.72;100.00;102237.72;7394124;19;19922;-78
2024/01/13 07:23:50;;;;;;;1.00;0.70;;;;;;;2.72;100.00;102216.44;7397605;19;19935;-78
2024/01/13 07:26:43;;;;;;;2.58;0.88;;;;;;;2.75;100.00;102220.72;7395415;19;19925;-78
2024/01/13 07:29:12;;;;;;;1.58;0.63;;;;;;;2.75;100.00;102202.09;7397187;19;19919;-78
2024/01/13 07:31:40;;;;;;;0.65;0.38;;;;;;;2.76;100.00;102211.81;7397013;19;19927;-78
2024/01/13 07:34:09;;;;;;;0.75;0.40;;;;;;;2.76;100.00;102185.19;7396482;19;19911;-78
2024/01/13 07:36:37;;;;;;;1.02;0.52;;;;;;;2.76;100.00;102187.84;7396511;19;19927;-78
2024/01/13 07:39:09;;;;;;;1.52;0.57;;;;;;;2.78;100.00;102195.72;7396342;19;19918;-78
2024/01/13 07:41:38;;;;;;;1.13;0.60;;;;;;;2.79;100.00;102194.78;7398845;19;19931;-78
2024/01/13 07:44:09;;;;;;;1.23;0.80;;;;;;;2.80;100.00;102199.16;7396332;19;20288;-78
2024/01/13 07:46:42;;;;;;;2.47;0.80;;;;;;;2.81;100.00;102209.69;7396691;19;19967;-78
2024/01/13 07:49:10;;;;;;;0.50;0.40;;;;;;;2.79;100.00;102200.97;7397751;19;20279;-78
2024/01/13 07:51:39;;;;;;;1.13;0.60;;;;;;;2.82;100.00;102202.56;7397354;19;19923;-78
2024/01/13 07:54:08;;;;;;;0.68;0.50;;;;;;;2.82;100.00;102202.56;7397105;19;19974;-78
2024/01/13 07:56:38;;;;;;;0.55;0.40;;;;;;;2.83;100.00;102212.25;7395097;19;19915;-78
2024/01/13 07:59:09;;;;;;;1.80;0.68;;;;;;;2.84;100.00;102206.00;7398016;19;20034;-78
2024/01/13 08:01:38;;;;;;;1.55;0.60;;;;;;;2.82;100.00;102202.56;7396201;19;20383;-78
2024/01/13 08:04:26;;;;;;;1.10;0.65;;;;;;;2.83;100.00;102221.09;7394669;19;19970;-78
2024/01/13 08:06:55;;;;;;;3.15;0.80;;;;;;;2.82;100.00;102199.91;7395778;19;19922;-78
2024/01/13 08:09:24;;;;;;;2.75;0.90;;;;;;;2.84;100.00;102195.34;7396634;19;19950;-78
2024/01/13 08:11:52;;;;;;;2.25;0.80;;;;;;;2.85;100.00;102195.25;7395758;19;20296;-78
2024/01/13 08:14:23;;;;;;;1.50;0.80;;;;;;;2.87;100.00;102192.50;7395336;19;19919;-78
2024/01/13 08:17:12;;;;;;;1.92;0.93;;;;;;;2.88;100.00;102188.88;7394925;19;19919;-78
2024/01/13 08:19:41;;;;;;;4.28;1.13;;;;;;;2.87;100.00;102184.50;7395555;19;19926;-78
2024/01/13 08:22:10;;;;;;;6.82;1.58;;;;;;;2.87;100.00;102185.38;7396039;19;19922;-78
2024/01/13 08:24:39;;;;;;;3.50;1.60;;;;;;;2.89;100.00;102174.63;7395428;19;19918;-78
2024/01/13 08:27:08;;;;;;;3.60;2.00;;;;;;;2.89;100.00;102170.13;7396389;19;19918;-78
2024/01/13 08:29:39;;;;;;;8.82;2.40;;;;;;;2.92;100.00;102166.44;7399056;19;19961;-78
2024/01/13 08:32:08;;;;;;;6.00;2.85;;;;;;;2.93;100.00;102160.19;7401694;19;19915;-78
2024/01/13 08:34:36;;;;;;;7.63;3.45;;;;;;;2.93;100.00;102169.03;7401672;19;19946;-78
2024/01/13 08:37:05;;;;;;;5.95;3.15;;;;;;;2.93;100.00;102153.06;7401074;19;19926;-78
2024/01/13 08:39:34;;;;;;;7.88;3.47;;;;;;;2.95;100.00;102156.47;7401792;19;19947;-78
2024/01/13 08:42:02;;;;;;;12.88;4.90;;;;;;;2.96;100.00;102146.69;7400120;19;19994;-78
2024/01/13 08:44:31;;;;;;;12.30;4.80;;;;;;;2.98;100.00;102147.41;7401323;19;19929;-78
2024/01/13 08:47:02;;;;;;;12.07;4.85;;;;;;;3.01;100.00;102142.78;7398966;19;19926;-78
2024/01/13 08:49:31;;;;;;;13.02;6.22;;;;;;;3.02;100.00;102146.31;7402901;19;20283;-78
2024/01/13 08:51:59;;;;;;;15.32;6.20;;;;;;;3.03;100.00;102137.34;7400239;19;19926;-78
2024/01/13 08:54:28;;;;;;;16.75;6.20;;;;;;;3.04;100.00;102147.91;7401656;19;19923;-78
2024/01/13 08:56:57;;;;;;;13.38;6.32;;;;;;;3.06;100.00;102129.19;7400572;19;20363;-79
2024/01/13 08:59:26;;;;;;;20.63;7.43;;;;;;;3.08;100.00;102129.91;7403772;19;19919;-77
2024/01/13 09:01:54;;;;;;;16.02;6.40;;;;;;;3.10;100.00;102126.22;7408502;19;19921;-78
2024/01/13 09:04:25;;;;;;;17.65;7.90;;;;;;;3.11;100.00;102121.72;7405834;19;19923;-78
2024/01/13 09:06:54;;;;;;;22.83;8.55;;;;;;;3.11;100.00;102127.91;7400853;19;19915;-77
2024/01/13 09:09:23;;;;;;;18.88;8.32;;;;;;;3.14;100.00;102116.22;7400101;19;19932;-78
2024/01/13 09:11:51;;;;;;;17.63;7.63;;;;;;;3.14;100.00;102121.56;7401049;19;19960;-78
2024/01/13 09:14:20;;;;;;;18.45;8.70;;;;;;;3.14;100.00;102098.44;7399048;19;20345;-78
2024/01/13 09:16:48;;;;;;;22.45;9.20;;;;;;;3.14;100.00;102102.91;7400917;19;19918;-78
2024/01/13 09:19:17;;;;;;;21.17;9.85;;;;;;;3.19;100.00;102120.28;7399934;19;19929;-79
2024/01/13 09:21:48;;;;;;;24.67;10.20;;;;;;;3.23;100.00;102098.81;7400370;19;20693;-78
2024/01/13 09:24:18;;;;;;;28.02;11.63;;;;;;;3.25;100.00;102097.72;7400466;19;19927;-77
2024/01/13 09:26:48;;;;;;;24.83;10.38;;;;;;;3.26;100.00;102128.75;7400181;19;19946;-77
2024/01/13 09:29:17;;;;;;;29.65;11.32;;;;;;;3.25;100.00;102103.06;7400202;19;20371;-77
2024/01/13 09:31:46;;;;;;;24.92;11.38;;;;;;;3.25;100.00;102111.03;7400342;19;20015;-78
2024/01/13 09:34:14;;;;;;;26.50;11.10;;;;;;;3.25;100.00;102091.56;7400049;19;19918;-78
2024/01/13 09:36:44;;;;;;;26.48;11.43;;;;;;;3.24;100.00;102090.69;7399088;19;19930;-78
2024/01/13 09:39:16;;;;;;;27.60;11.77;;;;;;;3.24;100.00;102090.69;7399996;19;19925;-77
2024/01/13 09:41:46;;;;;;;29.95;12.20;;;;;;;3.25;100.00;102086.22;7401019;19;19922;-77
2024/01/13 09:44:21;;;;;;;27.20;12.23;;;;;;;3.25;100.00;102086.22;7399856;19;20030;-77
2024/01/13 09:46:52;;;;;;;31.40;12.63;;;;;;;3.25;100.00;102086.22;7399026;19;19993;-78
2024/01/13 09:49:40;;;;;;;25.65;11.82;;;;;;;3.24;100.00;102077.38;7398417;19;19935;-78
2024/01/13 09:52:10;;;;;;;28.08;11.40;;;;;;;3.24;100.00;102066.72;7399131;19;20360;-78
2024/01/13 09:54:46;;;;;;;28.90;12.32;;;;;;;3.24;100.00;102080.03;7399709;19;19946;-78
2024/01/13 09:57:14;;;;;;;28.90;11.95;;;;;;;3.20;100.00;102079.41;7400634;19;19919;-78
2024/01/13 09:59:43;;;;;;;28.23;11.88;;;;;;;3.23;100.00;102083.69;7398079;19;19938;-78
2024/01/13 10:02:14;;;;;;;27.70;12.50;;;;;;;3.19;100.00;102071.53;7400144;19;19946;-78
2024/01/13 10:04:45;;;;;;;31.17;12.25;;;;;;;3.19;100.00;102076.84;7399533;19;19918;-78
2024/01/13 10:07:14;;;;;;;28.25;12.65;;;;;;;3.17;100.00;102073.41;7399531;19;20532;-78
2024/01/13 10:09:46;;;;;;;30.73;12.77;;;;;;;3.15;100.00;102073.50;7397749;19;19918;-78
2024/01/13 10:12:15;;;;;;;;;;;;;;;3.14;100.00;102058.50;7400972;19;19926;-78
2024/01/13 10:14:45;;;;;;;34.17;12.38;;;;;;;3.15;100.00;102051.34;7398754;19;19945;-78
2024/01/13 10:17:14;;;;;;;31.17;12.30;;;;;;;3.15;100.00;102059.34;7400057;19;19948;-78
2024/01/13 10:19:45;;;;;;;33.40;14.10;;;;;;;3.16;100.00;102056.59;7398661;19;19933;-78
2024/01/13 10:22:15;;;;;;;37.72;14.50;;;;;;;3.17;100.00;102068.94;7399781;19;20288;-78
2024/01/13 10:24:47;;;;;;;39.50;16.33;;;;;;;3.21;100.00;102050.97;7400234;19;20418;-78
2024/01/13 10:27:15;;;;;;;35.92;14.95;;;;;;;3.21;100.00;102058.94;7398803;19;19919;-77
2024/01/13 10:29:44;;;;;;;35.58;14.57;;;;;;;3.23;100.00;102051.72;7398537;19;20555;-78
2024/01/13 10:32:13;;;;;;;29.48;14.07;;;;;;;3.25;100.00;102054.28;7399907;19;19990;-78
2024/01/13 10:34:47;;;;;;;37.50;16.55;;;;;;;3.26;100.00;102054.19;7399539;19;19930;-77
2024/01/13 10:37:16;;;;;;;32.50;16.20;;;;;;;3.27;100.00;102036.41;7397212;19;20290;-78
2024/01/13 10:39:48;;;;;;;36.42;14.65;;;;;;;3.32;100.00;102037.81;7398184;19;19925;-78
2024/01/13 10:42:20;;;;;;;37.30;15.23;;;;;;;3.36;100.00;102052.63;7398275;19;19919;-78
2024/01/13 10:44:56;;;;;;;31.98;13.32;;;;;;;3.39;100.00;102052.41;7396860;19;19930;-77
2024/01/13 10:47:51;;;;;;;31.80;14.75;;;;;;;3.44;100.00;102039.66;7396487;19;19922;-78
2024/01/13 10:50:20;;;;;;;35.58;13.27;;;;;;;3.47;100.00;102035.91;7397832;19;19946;-76
2024/01/13 10:53:00;;;;;;;33.88;15.55;;;;;;;3.51;100.00;102027.63;7398364;19;19919;-76
2024/01/13 10:55:33;;;;;;;38.70;13.88;;;;;;;3.53;100.00;102031.03;7397881;19;19926;-76
2024/01/13 10:58:03;;;;;;;36.97;14.65;;;;;;;3.57;100.00;102031.69;7397023;19;19935;-76
2024/01/13 11:00:33;;;;;;;29.92;13.38;;;;;;;3.55;100.00;102037.09;7399086;19;19922;-76
2024/01/13 11:03:03;;;;;;;30.75;13.82;;;;;;;3.59;100.00;102027.94;7397353;19;19952;-76
2024/01/13 11:05:32;;;;;;;34.60;13.50;;;;;;;3.63;100.00;102015.25;7397511;19;19927;-76
2024/01/13 11:08:04;;;;;;;31.42;12.85;;;;;;;3.69;100.00;102000.69;7397553;19;19935;-75
2024/01/13 11:10:40;;;;;;;27.05;12.98;;;;;;;3.76;100.00;102007.28;7398131;19;19927;-76
2024/01/13 11:13:16;;;;;;;28.65;13.10;;;;;;;3.84;100.00;102012.97;7397731;19;20458;-77
2024/01/13 11:15:50;;;;;;;29.25;11.80;;;;;;;3.90;100.00;102007.19;7399307;19;19978;-76
2024/01/13 11:18:20;;;;;;;26.58;11.68;;;;;;;3.89;100.00;101998.34;7402460;19;19945;-76
2024/01/13 11:21:02;;;;;;;27.85;12.82;;;;;;;3.91;100.00;101995.56;7405191;19;20394;-76
2024/01/13 11:23:31;;;;;;;26.23;12.60;;;;;;;3.95;100.00;101994.41;7399103;19;20319;-76
2024/01/13 11:26:03;;;;;;;32.85;13.00;;;;;;;3.93;100.00;101977.66;7397009;19;20269;-76
2024/01/13 11:28:45;;;;;;;29.92;12.40;;;;;;;3.88;100.00;101994.00;7397746;19;19963;-76
2024/01/13 11:31:32;;;;;;;24.00;11.95;;;;;;;3.86;100.00;101971.03;7397565;19;19950;-76
2024/01/13 11:34:03;;;;;;;27.27;10.40;;;;;;;3.84;100.00;101979.13;7396641;19;19966;-76
2024/01/13 11:36:32;;;;;;;33.05;10.93;;;;;;;3.80;100.00;101974.13;7396200;19;20352;-76